sensor_id;sensor_type;location;lat;lon;timestamp;P1;durP1;ratioP1;P2;durP2;ratioP2
21800;SDS011;11062;51.164;16.924;2023-07-02T00:00:15;9.35;;;6.20;;
21800;SDS011;11062;51.164;16.924;2023-07-02T00:02:41;9.07;;;6.45;;
21800;SDS011;11062;51.164;16.924;2023-07-02T00:05:09;10.75;;;6.22;;
21800;SDS011;11062;51.164;16.924;2023-07-02T00:07:38;8.73;;;6.22;;
21800;SDS011;11062;51.164;16.924;2023-07-02T00:10:06;8.38;;;5.90;;
21800;SDS011;11062;51.164;16.924;2023-07-02T00:12:33;12.05;;;7.07;;
21800;SDS011;11062;51.164;16.924;2023-07-02T00:15:19;8.77;;;6.18;;
21800;SDS011;11062;51.164;16.924;2023-07-02T00:17:45;10.45;;;6.18;;
21800;SDS011;11062;51.164;16.924;2023-07-02T00:20:14;13.75;;;5.93;;
21800;SDS011;11062;51.164;16.924;2023-07-02T00:22:44;6.78;;;5.25;;
21800;SDS011;11062;51.164;16.924;2023-07-02T00:25:12;8.98;;;5.32;;
21800;SDS011;11062;51.164;16.924;2023-07-02T00:27:38;9.10;;;5.20;;
21800;SDS011;11062;51.164;16.924;2023-07-02T00:30:07;6.05;;;4.70;;
21800;SDS011;11062;51.164;16.924;2023-07-02T00:32:33;11.10;;;5.20;;
21800;SDS011;11062;51.164;16.924;2023-07-02T00:35:02;5.93;;;4.40;;
21800;SDS011;11062;51.164;16.924;2023-07-02T00:37:28;6.15;;;3.80;;
21800;SDS011;11062;51.164;16.924;2023-07-02T00:40:00;7.50;;;3.50;;
21800;SDS011;11062;51.164;16.924;2023-07-02T00:42:27;4.93;;;3.45;;
21800;SDS011;11062;51.164;16.924;2023-07-02T00:44:55;8.80;;;3.50;;
21800;SDS011;11062;51.164;16.924;2023-07-02T00:47:28;5.05;;;2.85;;
21800;SDS011;11062;51.164;16.924;2023-07-02T00:49:59;4.88;;;2.50;;
21800;SDS011;11062;51.164;16.924;2023-07-02T00:52:26;15.05;;;10.02;;
21800;SDS011;11062;51.164;16.924;2023-07-02T00:54:53;376.13;;;148.98;;
21800;SDS011;11062;51.164;16.924;2023-07-02T00:57:19;203.27;;;116.97;;
21800;SDS011;11062;51.164;16.924;2023-07-02T00:59:45;64.57;;;27.77;;
21800;SDS011;11062;51.164;16.924;2023-07-02T01:02:11;163.45;;;104.90;;
21800;SDS011;11062;51.164;16.924;2023-07-02T01:04:38;296.63;;;127.43;;
21800;SDS011;11062;51.164;16.924;2023-07-02T01:07:04;134.63;;;93.65;;
21800;SDS011;11062;51.164;16.924;2023-07-02T01:09:35;241.10;;;120.55;;
21800;SDS011;11062;51.164;16.924;2023-07-02T01:12:04;216.35;;;123.88;;
21800;SDS011;11062;51.164;16.924;2023-07-02T01:14:36;212.98;;;117.60;;
21800;SDS011;11062;51.164;16.924;2023-07-02T01:17:05;150.77;;;107.30;;
21800;SDS011;11062;51.164;16.924;2023-07-02T01:22:21;119.78;;;83.53;;
21800;SDS011;11062;51.164;16.924;2023-07-02T01:24:52;78.05;;;70.10;;
21800;SDS011;11062;51.164;16.924;2023-07-02T01:27:27;74.60;;;66.60;;
21800;SDS011;11062;51.164;16.924;2023-07-02T01:29:54;32.35;;;29.55;;
21800;SDS011;11062;51.164;16.924;2023-07-02T01:32:21;44.60;;;20.42;;
21800;SDS011;11062;51.164;16.924;2023-07-02T01:39:58;10.13;;;3.03;;
21800;SDS011;11062;51.164;16.924;2023-07-02T01:42:24;33.58;;;5.15;;
21800;SDS011;11062;51.164;16.924;2023-07-02T01:44:49;15.15;;;3.05;;
21800;SDS011;11062;51.164;16.924;2023-07-02T01:47:16;13.63;;;3.03;;
21800;SDS011;11062;51.164;16.924;2023-07-02T01:49:43;23.98;;;3.63;;
21800;SDS011;11062;51.164;16.924;2023-07-02T01:52:09;16.42;;;3.30;;
21800;SDS011;11062;51.164;16.924;2023-07-02T01:54:35;27.05;;;4.38;;
21800;SDS011;11062;51.164;16.924;2023-07-02T01:57:01;38.42;;;4.93;;
21800;SDS011;11062;51.164;16.924;2023-07-02T01:59:30;32.80;;;4.72;;
21800;SDS011;11062;51.164;16.924;2023-07-02T02:01:59;31.92;;;4.57;;
21800;SDS011;11062;51.164;16.924;2023-07-02T02:04:25;34.70;;;4.68;;
21800;SDS011;11062;51.164;16.924;2023-07-02T02:06:51;59.15;;;6.75;;
21800;SDS011;11062;51.164;16.924;2023-07-02T02:09:17;32.20;;;4.80;;
21800;SDS011;11062;51.164;16.924;2023-07-02T02:11:44;30.23;;;4.35;;
21800;SDS011;11062;51.164;16.924;2023-07-02T02:48:42;12.27;;;2.47;;
21800;SDS011;11062;51.164;16.924;2023-07-02T02:55:08;59.83;;;5.32;;
21800;SDS011;11062;51.164;16.924;2023-07-02T02:58:15;9.95;;;1.63;;
21800;SDS011;11062;51.164;16.924;2023-07-02T03:05:23;16.35;;;2.42;;
21800;SDS011;11062;51.164;16.924;2023-07-02T03:14:53;17.83;;;2.58;;
21800;SDS011;11062;51.164;16.924;2023-07-02T03:17:20;22.35;;;2.92;;
21800;SDS011;11062;51.164;16.924;2023-07-02T03:19:46;34.45;;;4.15;;
21800;SDS011;11062;51.164;16.924;2023-07-02T03:22:13;17.90;;;2.83;;
21800;SDS011;11062;51.164;16.924;2023-07-02T03:24:39;16.52;;;2.50;;
21800;SDS011;11062;51.164;16.924;2023-07-02T03:27:05;33.80;;;3.97;;
21800;SDS011;11062;51.164;16.924;2023-07-02T03:29:31;24.40;;;3.15;;
21800;SDS011;11062;51.164;16.924;2023-07-02T03:31:58;47.80;;;5.43;;
21800;SDS011;11062;51.164;16.924;2023-07-02T03:34:24;30.52;;;3.92;;
21800;SDS011;11062;51.164;16.924;2023-07-02T03:36:50;30.20;;;3.90;;
21800;SDS011;11062;51.164;16.924;2023-07-02T03:39:16;23.17;;;3.13;;
21800;SDS011;11062;51.164;16.924;2023-07-02T03:41:42;24.42;;;3.10;;
21800;SDS011;11062;51.164;16.924;2023-07-02T03:44:08;20.48;;;2.65;;
21800;SDS011;11062;51.164;16.924;2023-07-02T03:46:35;8.82;;;2.15;;
21800;SDS011;11062;51.164;16.924;2023-07-02T03:49:02;11.27;;;2.20;;
21800;SDS011;11062;51.164;16.924;2023-07-02T03:51:31;9.82;;;1.80;;
21800;SDS011;11062;51.164;16.924;2023-07-02T03:54:00;12.52;;;2.00;;
21800;SDS011;11062;51.164;16.924;2023-07-02T03:56:28;24.77;;;3.45;;
21800;SDS011;11062;51.164;16.924;2023-07-02T03:58:54;11.95;;;1.77;;
21800;SDS011;11062;51.164;16.924;2023-07-02T04:01:30;18.63;;;2.70;;
21800;SDS011;11062;51.164;16.924;2023-07-02T04:04:01;17.88;;;2.83;;
21800;SDS011;11062;51.164;16.924;2023-07-02T04:06:27;37.90;;;4.30;;
21800;SDS011;11062;51.164;16.924;2023-07-02T04:08:52;12.88;;;2.03;;
21800;SDS011;11062;51.164;16.924;2023-07-02T04:11:18;9.25;;;1.65;;
21800;SDS011;11062;51.164;16.924;2023-07-02T04:13:47;14.02;;;2.72;;
21800;SDS011;11062;51.164;16.924;2023-07-02T04:16:19;25.23;;;3.50;;
21800;SDS011;11062;51.164;16.924;2023-07-02T04:18:45;43.03;;;4.90;;
21800;SDS011;11062;51.164;16.924;2023-07-02T04:21:13;17.95;;;2.80;;
21800;SDS011;11062;51.164;16.924;2023-07-02T04:23:39;32.72;;;4.45;;
21800;SDS011;11062;51.164;16.924;2023-07-02T04:26:05;13.57;;;2.50;;
21800;SDS011;11062;51.164;16.924;2023-07-02T04:28:34;27.15;;;3.78;;
21800;SDS011;11062;51.164;16.924;2023-07-02T04:31:00;62.08;;;7.05;;
21800;SDS011;11062;51.164;16.924;2023-07-02T04:33:25;33.67;;;4.30;;
21800;SDS011;11062;51.164;16.924;2023-07-02T04:35:54;26.10;;;3.75;;
21800;SDS011;11062;51.164;16.924;2023-07-02T04:38:21;15.70;;;2.78;;
21800;SDS011;11062;51.164;16.924;2023-07-02T04:40:50;16.08;;;2.85;;
21800;SDS011;11062;51.164;16.924;2023-07-02T04:43:18;16.80;;;2.90;;
21800;SDS011;11062;51.164;16.924;2023-07-02T04:45:44;9.90;;;1.70;;
21800;SDS011;11062;51.164;16.924;2023-07-02T04:48:12;9.82;;;2.20;;
21800;SDS011;11062;51.164;16.924;2023-07-02T04:50:38;7.97;;;1.85;;
21800;SDS011;11062;51.164;16.924;2023-07-02T04:53:04;10.30;;;2.35;;
21800;SDS011;11062;51.164;16.924;2023-07-02T04:55:30;12.55;;;2.20;;
21800;SDS011;11062;51.164;16.924;2023-07-02T04:57:56;12.98;;;2.65;;
21800;SDS011;11062;51.164;16.924;2023-07-02T05:00:22;17.02;;;2.95;;
21800;SDS011;11062;51.164;16.924;2023-07-02T05:02:48;12.38;;;2.72;;
21800;SDS011;11062;51.164;16.924;2023-07-02T05:05:14;5.45;;;1.60;;
21800;SDS011;11062;51.164;16.924;2023-07-02T05:07:41;41.38;;;5.28;;
21800;SDS011;11062;51.164;16.924;2023-07-02T05:10:07;30.38;;;4.45;;
21800;SDS011;11062;51.164;16.924;2023-07-02T05:12:33;35.03;;;4.47;;
21800;SDS011;11062;51.164;16.924;2023-07-02T05:14:59;29.48;;;4.10;;
21800;SDS011;11062;51.164;16.924;2023-07-02T05:17:24;20.13;;;3.17;;
21800;SDS011;11062;51.164;16.924;2023-07-02T05:19:50;24.45;;;3.55;;
21800;SDS011;11062;51.164;16.924;2023-07-02T05:22:19;11.38;;;2.53;;
21800;SDS011;11062;51.164;16.924;2023-07-02T05:24:45;21.83;;;3.63;;
21800;SDS011;11062;51.164;16.924;2023-07-02T05:27:11;22.75;;;3.83;;
21800;SDS011;11062;51.164;16.924;2023-07-02T05:29:38;17.13;;;3.33;;
21800;SDS011;11062;51.164;16.924;2023-07-02T05:32:04;30.13;;;4.07;;
21800;SDS011;11062;51.164;16.924;2023-07-02T05:34:29;5.78;;;2.03;;
21800;SDS011;11062;51.164;16.924;2023-07-02T05:36:55;9.18;;;2.35;;
21800;SDS011;11062;51.164;16.924;2023-07-02T05:39:27;12.35;;;2.70;;
21800;SDS011;11062;51.164;16.924;2023-07-02T05:41:53;25.75;;;3.75;;
21800;SDS011;11062;51.164;16.924;2023-07-02T05:44:21;8.50;;;2.15;;
21800;SDS011;11062;51.164;16.924;2023-07-02T05:46:48;15.38;;;2.95;;
21800;SDS011;11062;51.164;16.924;2023-07-02T05:49:14;31.35;;;4.63;;
21800;SDS011;11062;51.164;16.924;2023-07-02T05:51:40;19.88;;;3.22;;
21800;SDS011;11062;51.164;16.924;2023-07-02T05:54:06;37.22;;;4.88;;
21800;SDS011;11062;51.164;16.924;2023-07-02T05:56:32;20.13;;;3.50;;
21800;SDS011;11062;51.164;16.924;2023-07-02T05:58:58;15.45;;;2.95;;
21800;SDS011;11062;51.164;16.924;2023-07-02T06:01:24;16.30;;;3.10;;
21800;SDS011;11062;51.164;16.924;2023-07-02T06:03:50;16.63;;;3.05;;
21800;SDS011;11062;51.164;16.924;2023-07-02T06:06:16;30.60;;;4.18;;
21800;SDS011;11062;51.164;16.924;2023-07-02T06:08:42;8.43;;;2.25;;
21800;SDS011;11062;51.164;16.924;2023-07-02T06:11:14;13.13;;;2.95;;
21800;SDS011;11062;51.164;16.924;2023-07-02T06:13:40;21.67;;;3.28;;
21800;SDS011;11062;51.164;16.924;2023-07-02T06:16:06;10.30;;;2.60;;
21800;SDS011;11062;51.164;16.924;2023-07-02T06:18:32;28.95;;;3.83;;
21800;SDS011;11062;51.164;16.924;2023-07-02T06:20:58;28.75;;;3.95;;
21800;SDS011;11062;51.164;16.924;2023-07-02T06:23:26;23.45;;;3.67;;
21800;SDS011;11062;51.164;16.924;2023-07-02T06:25:53;11.50;;;2.65;;
21800;SDS011;11062;51.164;16.924;2023-07-02T06:28:24;11.88;;;2.35;;
21800;SDS011;11062;51.164;16.924;2023-07-02T06:30:50;22.25;;;3.35;;
21800;SDS011;11062;51.164;16.924;2023-07-02T06:33:17;11.02;;;1.85;;
21800;SDS011;11062;51.164;16.924;2023-07-02T06:35:46;13.00;;;2.45;;
21800;SDS011;11062;51.164;16.924;2023-07-02T06:38:12;13.00;;;2.13;;
21800;SDS011;11062;51.164;16.924;2023-07-02T06:40:38;13.20;;;2.33;;
21800;SDS011;11062;51.164;16.924;2023-07-02T06:43:04;17.73;;;3.05;;
21800;SDS011;11062;51.164;16.924;2023-07-02T06:45:30;7.72;;;2.25;;
21800;SDS011;11062;51.164;16.924;2023-07-02T06:57:47;2.03;;;1.38;;
21800;SDS011;11062;51.164;16.924;2023-07-02T07:00:19;1.85;;;1.40;;
21800;SDS011;11062;51.164;16.924;2023-07-02T07:06:37;3.95;;;1.55;;
21800;SDS011;11062;51.164;16.924;2023-07-02T08:43:14;387.27;;;157.40;;
21800;SDS011;11062;51.164;16.924;2023-07-02T08:45:41;288.45;;;113.82;;
21800;SDS011;11062;51.164;16.924;2023-07-02T08:48:08;280.00;;;111.38;;
21800;SDS011;11062;51.164;16.924;2023-07-02T08:50:34;286.63;;;117.05;;
21800;SDS011;11062;51.164;16.924;2023-07-02T08:53:00;372.85;;;163.38;;
21800;SDS011;11062;51.164;16.924;2023-07-02T08:55:26;379.60;;;227.38;;
21800;SDS011;11062;51.164;16.924;2023-07-02T08:57:55;302.88;;;131.90;;
21800;SDS011;11062;51.164;16.924;2023-07-02T09:00:28;321.75;;;170.23;;
21800;SDS011;11062;51.164;16.924;2023-07-02T09:02:57;395.77;;;286.15;;
21800;SDS011;11062;51.164;16.924;2023-07-02T09:05:24;375.10;;;244.13;;
21800;SDS011;11062;51.164;16.924;2023-07-02T09:07:56;280.00;;;107.50;;
21800;SDS011;11062;51.164;16.924;2023-07-02T09:11:13;296.48;;;132.98;;
21800;SDS011;11062;51.164;16.924;2023-07-02T09:14:32;360.67;;;248.37;;
21800;SDS011;11062;51.164;16.924;2023-07-02T09:21:28;361.83;;;243.88;;
21800;SDS011;11062;51.164;16.924;2023-07-02T09:25:04;283.63;;;105.47;;
21800;SDS011;11062;51.164;16.924;2023-07-02T09:35:13;281.02;;;109.25;;
21800;SDS011;11062;51.164;16.924;2023-07-02T09:48:59;292.95;;;112.50;;
21800;SDS011;11062;51.164;16.924;2023-07-02T09:51:25;347.65;;;210.65;;
21800;SDS011;11062;51.164;16.924;2023-07-02T09:53:54;301.38;;;115.10;;
21800;SDS011;11062;51.164;16.924;2023-07-02T09:56:21;340.48;;;233.63;;
21800;SDS011;11062;51.164;16.924;2023-07-02T09:58:47;274.83;;;108.15;;
21800;SDS011;11062;51.164;16.924;2023-07-02T10:01:13;298.88;;;109.70;;
21800;SDS011;11062;51.164;16.924;2023-07-02T10:03:39;461.90;;;385.65;;
21800;SDS011;11062;51.164;16.924;2023-07-02T10:06:06;297.88;;;111.88;;
21800;SDS011;11062;51.164;16.924;2023-07-02T10:08:32;335.33;;;198.70;;
21800;SDS011;11062;51.164;16.924;2023-07-02T10:11:08;301.65;;;157.00;;
21800;SDS011;11062;51.164;16.924;2023-07-02T10:13:40;318.67;;;157.35;;
21800;SDS011;11062;51.164;16.924;2023-07-02T10:16:09;324.65;;;158.00;;
21800;SDS011;11062;51.164;16.924;2023-07-02T10:18:36;280.30;;;110.07;;
21800;SDS011;11062;51.164;16.924;2023-07-02T10:21:15;335.77;;;174.43;;
21800;SDS011;11062;51.164;16.924;2023-07-02T10:23:46;293.75;;;117.07;;
21800;SDS011;11062;51.164;16.924;2023-07-02T10:26:16;297.13;;;121.05;;
21800;SDS011;11062;51.164;16.924;2023-07-02T10:28:57;297.13;;;127.30;;
21800;SDS011;11062;51.164;16.924;2023-07-02T10:31:27;343.17;;;193.75;;
21800;SDS011;11062;51.164;16.924;2023-07-02T10:33:53;321.63;;;183.00;;
21800;SDS011;11062;51.164;16.924;2023-07-02T10:36:20;311.63;;;140.70;;
21800;SDS011;11062;51.164;16.924;2023-07-02T10:38:50;292.33;;;121.55;;
21800;SDS011;11062;51.164;16.924;2023-07-02T10:41:25;318.67;;;158.32;;
21800;SDS011;11062;51.164;16.924;2023-07-02T10:43:53;291.20;;;123.32;;
21800;SDS011;11062;51.164;16.924;2023-07-02T10:46:23;300.23;;;142.32;;
21800;SDS011;11062;51.164;16.924;2023-07-02T10:48:53;319.35;;;142.70;;
21800;SDS011;11062;51.164;16.924;2023-07-02T10:51:19;284.60;;;121.07;;
21800;SDS011;11062;51.164;16.924;2023-07-02T10:53:46;295.15;;;126.10;;
21800;SDS011;11062;51.164;16.924;2023-07-02T10:56:24;290.23;;;120.72;;
21800;SDS011;11062;51.164;16.924;2023-07-02T10:58:51;316.08;;;134.80;;
21800;SDS011;11062;51.164;16.924;2023-07-02T11:01:23;300.15;;;130.93;;
21800;SDS011;11062;51.164;16.924;2023-07-02T11:03:59;299.77;;;134.30;;
21800;SDS011;11062;51.164;16.924;2023-07-02T11:06:27;305.02;;;133.82;;
21800;SDS011;11062;51.164;16.924;2023-07-02T11:08:54;303.17;;;138.18;;
21800;SDS011;11062;51.164;16.924;2023-07-02T11:11:20;300.15;;;130.18;;
21800;SDS011;11062;51.164;16.924;2023-07-02T11:13:47;317.38;;;148.82;;
21800;SDS011;11062;51.164;16.924;2023-07-02T11:16:25;314.40;;;157.60;;
21800;SDS011;11062;51.164;16.924;2023-07-02T11:18:53;383.52;;;218.38;;
21800;SDS011;11062;51.164;16.924;2023-07-02T11:21:35;400.17;;;327.25;;
21800;SDS011;11062;51.164;16.924;2023-07-02T11:24:05;360.05;;;226.05;;
21800;SDS011;11062;51.164;16.924;2023-07-02T11:26:39;312.27;;;151.07;;
21800;SDS011;11062;51.164;16.924;2023-07-02T11:29:12;305.98;;;143.15;;
21800;SDS011;11062;51.164;16.924;2023-07-02T11:31:45;385.60;;;300.55;;
21800;SDS011;11062;51.164;16.924;2023-07-02T11:34:12;372.15;;;236.85;;
21800;SDS011;11062;51.164;16.924;2023-07-02T11:36:49;299.10;;;132.32;;
21800;SDS011;11062;51.164;16.924;2023-07-02T11:39:22;350.50;;;196.23;;
21800;SDS011;11062;51.164;16.924;2023-07-02T11:41:51;328.70;;;167.88;;
21800;SDS011;11062;51.164;16.924;2023-07-02T11:44:18;328.38;;;153.38;;
21800;SDS011;11062;51.164;16.924;2023-07-02T11:46:44;417.67;;;325.77;;
21800;SDS011;11062;51.164;16.924;2023-07-02T11:49:14;296.13;;;139.20;;
21800;SDS011;11062;51.164;16.924;2023-07-02T11:51:45;334.55;;;161.18;;
21800;SDS011;11062;51.164;16.924;2023-07-02T11:54:13;397.60;;;268.55;;
21800;SDS011;11062;51.164;16.924;2023-07-02T11:56:40;299.48;;;135.95;;
21800;SDS011;11062;51.164;16.924;2023-07-02T11:59:10;305.85;;;137.77;;
21800;SDS011;11062;51.164;16.924;2023-07-02T12:01:36;311.77;;;140.43;;
21800;SDS011;11062;51.164;16.924;2023-07-02T12:04:02;323.23;;;141.63;;
21800;SDS011;11062;51.164;16.924;2023-07-02T12:06:30;315.70;;;148.23;;
21800;SDS011;11062;51.164;16.924;2023-07-02T12:08:56;387.13;;;259.30;;
21800;SDS011;11062;51.164;16.924;2023-07-02T12:11:22;424.02;;;333.27;;
21800;SDS011;11062;51.164;16.924;2023-07-02T12:13:48;321.05;;;154.45;;
21800;SDS011;11062;51.164;16.924;2023-07-02T12:16:15;399.63;;;292.42;;
21800;SDS011;11062;51.164;16.924;2023-07-02T12:18:41;366.00;;;249.23;;
21800;SDS011;11062;51.164;16.924;2023-07-02T12:21:07;373.75;;;255.68;;
21800;SDS011;11062;51.164;16.924;2023-07-02T12:23:36;391.15;;;269.58;;
21800;SDS011;11062;51.164;16.924;2023-07-02T12:26:05;391.27;;;288.80;;
21800;SDS011;11062;51.164;16.924;2023-07-02T12:28:36;307.15;;;139.60;;
21800;SDS011;11062;51.164;16.924;2023-07-02T14:22:45;412.08;;;320.40;;
21800;SDS011;11062;51.164;16.924;2023-07-02T14:25:31;474.27;;;396.05;;
21800;SDS011;11062;51.164;16.924;2023-07-02T15:02:19;332.40;;;165.68;;
21800;SDS011;11062;51.164;16.924;2023-07-02T15:15:49;358.13;;;214.55;;
21800;SDS011;11062;51.164;16.924;2023-07-02T15:18:15;337.50;;;199.70;;
21800;SDS011;11062;51.164;16.924;2023-07-02T15:20:42;414.08;;;330.17;;
21800;SDS011;11062;51.164;16.924;2023-07-02T15:23:14;372.08;;;248.00;;
21800;SDS011;11062;51.164;16.924;2023-07-02T15:25:40;388.75;;;292.92;;
21800;SDS011;11062;51.164;16.924;2023-07-02T15:28:11;417.25;;;355.17;;
21800;SDS011;11062;51.164;16.924;2023-07-02T15:30:38;383.65;;;271.10;;
21800;SDS011;11062;51.164;16.924;2023-07-02T15:33:04;541.80;;;482.70;;
21800;SDS011;11062;51.164;16.924;2023-07-02T15:35:30;346.60;;;213.15;;
21800;SDS011;11062;51.164;16.924;2023-07-02T15:37:57;337.63;;;204.00;;
21800;SDS011;11062;51.164;16.924;2023-07-02T15:40:23;345.17;;;204.18;;
21800;SDS011;11062;51.164;16.924;2023-07-02T15:42:51;348.98;;;216.93;;
21800;SDS011;11062;51.164;16.924;2023-07-02T15:45:17;365.52;;;216.50;;
21800;SDS011;11062;51.164;16.924;2023-07-02T15:47:43;342.15;;;201.07;;
21800;SDS011;11062;51.164;16.924;2023-07-02T15:50:09;402.27;;;292.65;;
21800;SDS011;11062;51.164;16.924;2023-07-02T15:52:36;347.38;;;206.63;;
21800;SDS011;11062;51.164;16.924;2023-07-02T15:55:02;335.98;;;193.30;;
21800;SDS011;11062;51.164;16.924;2023-07-02T15:57:28;424.00;;;312.60;;
21800;SDS011;11062;51.164;16.924;2023-07-02T15:59:57;352.60;;;215.55;;
21800;SDS011;11062;51.164;16.924;2023-07-02T16:02:23;359.30;;;208.73;;
21800;SDS011;11062;51.164;16.924;2023-07-02T16:04:49;351.58;;;214.43;;
21800;SDS011;11062;51.164;16.924;2023-07-02T17:22:44;351.40;;;190.90;;
21800;SDS011;11062;51.164;16.924;2023-07-02T17:25:14;343.85;;;175.10;;
21800;SDS011;11062;51.164;16.924;2023-07-02T17:27:42;331.00;;;148.25;;
21800;SDS011;11062;51.164;16.924;2023-07-02T17:30:09;335.15;;;145.13;;
21800;SDS011;11062;51.164;16.924;2023-07-02T17:32:36;322.83;;;145.90;;
21800;SDS011;11062;51.164;16.924;2023-07-02T17:35:04;360.67;;;159.77;;
21800;SDS011;11062;51.164;16.924;2023-07-02T17:37:38;330.13;;;147.85;;
21800;SDS011;11062;51.164;16.924;2023-07-02T17:40:05;341.25;;;165.23;;
21800;SDS011;11062;51.164;16.924;2023-07-02T17:42:37;423.67;;;317.55;;
21800;SDS011;11062;51.164;16.924;2023-07-02T17:45:03;416.10;;;304.88;;
21800;SDS011;11062;51.164;16.924;2023-07-02T17:47:30;450.65;;;345.90;;
21800;SDS011;11062;51.164;16.924;2023-07-02T17:49:56;387.65;;;267.35;;
21800;SDS011;11062;51.164;16.924;2023-07-02T17:52:22;365.60;;;202.88;;
21800;SDS011;11062;51.164;16.924;2023-07-02T17:54:50;412.90;;;261.73;;
21800;SDS011;11062;51.164;16.924;2023-07-02T17:57:20;374.20;;;224.15;;
21800;SDS011;11062;51.164;16.924;2023-07-02T17:59:47;361.58;;;200.32;;
21800;SDS011;11062;51.164;16.924;2023-07-02T18:02:16;357.55;;;187.65;;
21800;SDS011;11062;51.164;16.924;2023-07-02T18:04:43;383.27;;;234.40;;
21800;SDS011;11062;51.164;16.924;2023-07-02T18:07:10;367.50;;;210.35;;
21800;SDS011;11062;51.164;16.924;2023-07-02T18:13:10;417.58;;;301.70;;
21800;SDS011;11062;51.164;16.924;2023-07-02T18:16:26;360.23;;;187.00;;
21800;SDS011;11062;51.164;16.924;2023-07-02T18:19:30;372.23;;;204.20;;
21800;SDS011;11062;51.164;16.924;2023-07-02T18:29:57;431.65;;;247.05;;
21800;SDS011;11062;51.164;16.924;2023-07-02T18:32:29;430.63;;;238.40;;
21800;SDS011;11062;51.164;16.924;2023-07-02T18:34:58;328.70;;;136.82;;
21800;SDS011;11062;51.164;16.924;2023-07-02T18:38:07;345.50;;;139.15;;
21800;SDS011;11062;51.164;16.924;2023-07-02T18:44:36;325.73;;;133.10;;
21800;SDS011;11062;51.164;16.924;2023-07-02T18:47:39;325.80;;;143.40;;
21800;SDS011;11062;51.164;16.924;2023-07-02T18:50:14;359.65;;;176.73;;
21800;SDS011;11062;51.164;16.924;2023-07-02T18:52:43;423.20;;;261.83;;
21800;SDS011;11062;51.164;16.924;2023-07-02T18:55:25;331.95;;;144.95;;
21800;SDS011;11062;51.164;16.924;2023-07-02T18:58:03;323.92;;;135.50;;
21800;SDS011;11062;51.164;16.924;2023-07-02T19:00:32;346.50;;;137.43;;
21800;SDS011;11062;51.164;16.924;2023-07-02T19:03:04;353.98;;;162.45;;
21800;SDS011;11062;51.164;16.924;2023-07-02T19:05:44;339.67;;;167.45;;
21800;SDS011;11062;51.164;16.924;2023-07-02T19:08:11;345.45;;;171.43;;
21800;SDS011;11062;51.164;16.924;2023-07-02T19:10:37;385.77;;;169.20;;
21800;SDS011;11062;51.164;16.924;2023-07-02T19:13:09;356.77;;;175.23;;
21800;SDS011;11062;51.164;16.924;2023-07-02T19:15:38;350.77;;;170.75;;
21800;SDS011;11062;51.164;16.924;2023-07-02T19:18:05;374.50;;;208.05;;
21800;SDS011;11062;51.164;16.924;2023-07-02T19:20:41;368.15;;;177.27;;
21800;SDS011;11062;51.164;16.924;2023-07-02T19:23:19;366.92;;;198.05;;
21800;SDS011;11062;51.164;16.924;2023-07-02T19:25:45;333.85;;;153.85;;
21800;SDS011;11062;51.164;16.924;2023-07-02T19:28:12;337.27;;;143.88;;
21800;SDS011;11062;51.164;16.924;2023-07-02T19:30:41;341.70;;;176.50;;
21800;SDS011;11062;51.164;16.924;2023-07-02T19:33:10;377.70;;;205.93;;
21800;SDS011;11062;51.164;16.924;2023-07-02T19:35:39;389.42;;;237.63;;
21800;SDS011;11062;51.164;16.924;2023-07-02T19:38:06;338.80;;;168.30;;
21800;SDS011;11062;51.164;16.924;2023-07-02T19:40:37;328.63;;;147.73;;
21800;SDS011;11062;51.164;16.924;2023-07-02T19:43:06;346.83;;;145.15;;
21800;SDS011;11062;51.164;16.924;2023-07-02T19:45:46;345.50;;;160.27;;
21800;SDS011;11062;51.164;16.924;2023-07-02T19:48:14;367.70;;;217.80;;
21800;SDS011;11062;51.164;16.924;2023-07-02T19:50:43;331.95;;;167.43;;
21800;SDS011;11062;51.164;16.924;2023-07-02T19:53:12;338.80;;;163.00;;
21800;SDS011;11062;51.164;16.924;2023-07-02T19:55:41;317.40;;;153.77;;
21800;SDS011;11062;51.164;16.924;2023-07-02T19:58:07;372.00;;;204.90;;
21800;SDS011;11062;51.164;16.924;2023-07-02T20:00:33;328.73;;;159.70;;
21800;SDS011;11062;51.164;16.924;2023-07-02T20:03:00;313.30;;;148.05;;
21800;SDS011;11062;51.164;16.924;2023-07-02T20:05:28;305.52;;;115.68;;
21800;SDS011;11062;51.164;16.924;2023-07-02T20:07:58;323.73;;;150.95;;
21800;SDS011;11062;51.164;16.924;2023-07-02T20:10:25;327.10;;;150.65;;
21800;SDS011;11062;51.164;16.924;2023-07-02T20:12:54;303.70;;;125.30;;
21800;SDS011;11062;51.164;16.924;2023-07-02T20:15:24;305.33;;;124.07;;
21800;SDS011;11062;51.164;16.924;2023-07-02T20:17:58;312.88;;;132.88;;
21800;SDS011;11062;51.164;16.924;2023-07-02T20:20:28;330.20;;;149.73;;
21800;SDS011;11062;51.164;16.924;2023-07-02T20:22:56;370.02;;;243.82;;
21800;SDS011;11062;51.164;16.924;2023-07-02T20:25:30;373.38;;;242.60;;
21800;SDS011;11062;51.164;16.924;2023-07-02T20:27:57;330.08;;;173.60;;
21800;SDS011;11062;51.164;16.924;2023-07-02T20:30:43;341.73;;;211.43;;
21800;SDS011;11062;51.164;16.924;2023-07-02T20:34:12;308.63;;;135.80;;
21800;SDS011;11062;51.164;16.924;2023-07-02T20:37:40;293.80;;;130.55;;
21800;SDS011;11062;51.164;16.924;2023-07-02T20:50:45;354.25;;;222.93;;
21800;SDS011;11062;51.164;16.924;2023-07-02T21:14:59;353.58;;;227.02;;
21800;SDS011;11062;51.164;16.924;2023-07-02T21:17:30;323.60;;;169.30;;
21800;SDS011;11062;51.164;16.924;2023-07-02T21:20:04;310.70;;;147.32;;
21800;SDS011;11062;51.164;16.924;2023-07-02T21:22:34;348.63;;;194.40;;
21800;SDS011;11062;51.164;16.924;2023-07-02T21:25:03;299.85;;;137.82;;
21800;SDS011;11062;51.164;16.924;2023-07-02T21:27:36;306.25;;;129.10;;
21800;SDS011;11062;51.164;16.924;2023-07-02T21:30:05;315.00;;;171.90;;
21800;SDS011;11062;51.164;16.924;2023-07-02T21:32:31;328.52;;;159.25;;
21800;SDS011;11062;51.164;16.924;2023-07-02T21:35:02;315.85;;;160.43;;
21800;SDS011;11062;51.164;16.924;2023-07-02T21:37:30;315.13;;;158.63;;
21800;SDS011;11062;51.164;16.924;2023-07-02T21:39:58;315.00;;;153.73;;
21800;SDS011;11062;51.164;16.924;2023-07-02T21:42:28;315.60;;;166.23;;
21800;SDS011;11062;51.164;16.924;2023-07-02T21:44:59;324.95;;;181.15;;
21800;SDS011;11062;51.164;16.924;2023-07-02T21:47:35;329.15;;;185.57;;
21800;SDS011;11062;51.164;16.924;2023-07-02T21:50:02;301.23;;;147.40;;
21800;SDS011;11062;51.164;16.924;2023-07-02T21:52:37;323.02;;;177.50;;
21800;SDS011;11062;51.164;16.924;2023-07-02T21:55:12;315.35;;;181.07;;
21800;SDS011;11062;51.164;16.924;2023-07-02T21:57:41;316.88;;;149.48;;
21800;SDS011;11062;51.164;16.924;2023-07-02T22:00:14;334.80;;;184.68;;
21800;SDS011;11062;51.164;16.924;2023-07-02T22:02:42;415.02;;;278.25;;